sensor_id;sensor_type;location;lat;lon;timestamp;pressure;altitude;pressure_sealevel;temperature;humidity
28428;BME280;15662;49.128;8.520;2022-07-01T00:02:08;100476.75;;;23.65;49.11
28428;BME280;15662;49.128;8.520;2022-07-01T00:04:42;100487.59;;;23.65;49.30
28428;BME280;15662;49.128;8.520;2022-07-01T00:07:28;100498.59;;;23.62;49.45
28428;BME280;15662;49.128;8.520;2022-07-01T00:09:56;100492.19;;;23.63;49.56
28428;BME280;15662;49.128;8.520;2022-07-01T00:12:24;100503.16;;;23.61;49.62
28428;BME280;15662;49.128;8.520;2022-07-01T00:14:52;100486.06;;;23.61;49.57
28428;BME280;15662;49.128;8.520;2022-07-01T00:17:20;100482.84;;;23.56;49.69
28428;BME280;15662;49.128;8.520;2022-07-01T00:19:48;100492.69;;;23.57;49.77
28428;BME280;15662;49.128;8.520;2022-07-01T00:22:18;100517.03;;;23.57;50.02
28428;BME280;15662;49.128;8.520;2022-07-01T00:24:47;100519.25;;;23.52;49.86
28428;BME280;15662;49.128;8.520;2022-07-01T00:27:16;100536.84;;;23.57;50.26
28428;BME280;15662;49.128;8.520;2022-07-01T00:29:44;100531.44;;;23.57;50.07
28428;BME280;15662;49.128;8.520;2022-07-01T00:32:12;100526.16;;;23.56;49.99
28428;BME280;15662;49.128;8.520;2022-07-01T00:34:40;100536.22;;;23.54;49.99
28428;BME280;15662;49.128;8.520;2022-07-01T00:37:08;100539.03;;;23.52;49.90
28428;BME280;15662;49.128;8.520;2022-07-01T00:39:36;100535.69;;;23.49;50.05
28428;BME280;15662;49.128;8.520;2022-07-01T00:42:05;100537.31;;;23.51;50.29
28428;BME280;15662;49.128;8.520;2022-07-01T00:44:33;100533.50;;;23.54;50.10
28428;BME280;15662;49.128;8.520;2022-07-01T00:47:03;100536.09;;;23.55;49.92
28428;BME280;15662;49.128;8.520;2022-07-01T00:49:35;100539.91;;;23.53;49.76
28428;BME280;15662;49.128;8.520;2022-07-01T00:52:08;100525.50;;;23.52;49.53
28428;BME280;15662;49.128;8.520;2022-07-01T00:54:38;100543.72;;;23.50;49.77
28428;BME280;15662;49.128;8.520;2022-07-01T00:57:10;100532.41;;;23.45;49.65
28428;BME280;15662;49.128;8.520;2022-07-01T00:59:39;100538.75;;;23.44;49.92
28428;BME280;15662;49.128;8.520;2022-07-01T01:02:08;100545.28;;;23.41;50.06
28428;BME280;15662;49.128;8.520;2022-07-01T01:04:36;100563.22;;;23.42;50.06
28428;BME280;15662;49.128;8.520;2022-07-01T01:07:05;100569.75;;;23.40;50.00
28428;BME280;15662;49.128;8.520;2022-07-01T01:09:33;100564.44;;;23.38;49.86
28428;BME280;15662;49.128;8.520;2022-07-01T01:12:02;100563.44;;;23.39;50.16
28428;BME280;15662;49.128;8.520;2022-07-01T01:14:30;100541.56;;;23.31;50.16
28428;BME280;15662;49.128;8.520;2022-07-01T01:17:10;100541.22;;;23.36;50.14
28428;BME280;15662;49.128;8.520;2022-07-01T01:19:39;100550.91;;;23.38;50.07
28428;BME280;15662;49.128;8.520;2022-07-01T01:22:08;100531.59;;;23.32;50.25
28428;BME280;15662;49.128;8.520;2022-07-01T01:24:38;100532.97;;;23.37;50.26
28428;BME280;15662;49.128;8.520;2022-07-01T01:27:07;100524.22;;;23.34;50.20
28428;BME280;15662;49.128;8.520;2022-07-01T01:29:36;100527.91;;;23.33;50.31
28428;BME280;15662;49.128;8.520;2022-07-01T01:32:06;100526.06;;;23.33;50.40
28428;BME280;15662;49.128;8.520;2022-07-01T01:34:36;100523.34;;;23.33;50.18
28428;BME280;15662;49.128;8.520;2022-07-01T01:37:08;100525.19;;;23.33;50.40
28428;BME280;15662;49.128;8.520;2022-07-01T01:39:36;100526.31;;;23.30;50.34
28428;BME280;15662;49.128;8.520;2022-07-01T01:42:07;100529.25;;;23.27;50.27
28428;BME280;15662;49.128;8.520;2022-07-01T01:44:35;100534.88;;;23.24;50.47
28428;BME280;15662;49.128;8.520;2022-07-01T01:47:03;100546.47;;;23.26;50.65
28428;BME280;15662;49.128;8.520;2022-07-01T01:49:31;100550.16;;;23.25;50.64
28428;BME280;15662;49.128;8.520;2022-07-01T01:51:59;100545.69;;;23.24;50.82
28428;BME280;15662;49.128;8.520;2022-07-01T01:54:28;100537.69;;;23.23;50.66
28428;BME280;15662;49.128;8.520;2022-07-01T01:56:56;100522.81;;;23.17;50.66
28428;BME280;15662;49.128;8.520;2022-07-01T01:59:24;100529.22;;;23.16;50.99
28428;BME280;15662;49.128;8.520;2022-07-01T02:01:51;100525.72;;;23.14;50.95
28428;BME280;15662;49.128;8.520;2022-07-01T02:04:19;100504.44;;;23.09;50.96
28428;BME280;15662;49.128;8.520;2022-07-01T02:06:48;100508.91;;;23.10;50.90
28428;BME280;15662;49.128;8.520;2022-07-01T02:09:17;100499.91;;;23.10;51.09
28428;BME280;15662;49.128;8.520;2022-07-01T02:11:45;100493.88;;;23.06;51.10
28428;BME280;15662;49.128;8.520;2022-07-01T02:14:13;100495.09;;;23.02;51.02
28428;BME280;15662;49.128;8.520;2022-07-01T02:16:40;100500.13;;;22.96;51.17
28428;BME280;15662;49.128;8.520;2022-07-01T02:19:09;100507.66;;;22.90;51.33
28428;BME280;15662;49.128;8.520;2022-07-01T02:21:36;100506.81;;;22.90;51.04
28428;BME280;15662;49.128;8.520;2022-07-01T02:24:05;100498.41;;;22.82;50.97
28428;BME280;15662;49.128;8.520;2022-07-01T02:26:33;100505.66;;;22.81;50.99
28428;BME280;15662;49.128;8.520;2022-07-01T02:29:01;100517.66;;;22.77;51.13
28428;BME280;15662;49.128;8.520;2022-07-01T02:31:29;100517.66;;;22.77;50.98
28428;BME280;15662;49.128;8.520;2022-07-01T02:33:57;100494.66;;;22.72;51.10
28428;BME280;15662;49.128;8.520;2022-07-01T02:36:25;100501.91;;;22.71;51.12
28428;BME280;15662;49.128;8.520;2022-07-01T02:38:53;100496.72;;;22.68;51.05
28428;BME280;15662;49.128;8.520;2022-07-01T02:41:21;100503.31;;;22.64;51.10
28428;BME280;15662;49.128;8.520;2022-07-01T02:43:48;100510.56;;;22.63;51.11
28428;BME280;15662;49.128;8.520;2022-07-01T02:46:16;100491.13;;;22.58;51.13
28428;BME280;15662;49.128;8.520;2022-07-01T02:48:46;100498.59;;;22.55;51.19
28428;BME280;15662;49.128;8.520;2022-07-01T02:51:14;100482.72;;;22.50;51.23
28428;BME280;15662;49.128;8.520;2022-07-01T02:53:42;100485.56;;;22.49;51.16
28428;BME280;15662;49.128;8.520;2022-07-01T02:56:10;100483.75;;;22.36;51.30
28428;BME280;15662;49.128;8.520;2022-07-01T02:58:38;100489.03;;;22.38;51.47
28428;BME280;15662;49.128;8.520;2022-07-01T03:01:06;100494.56;;;22.36;51.37
28428;BME280;15662;49.128;8.520;2022-07-01T03:03:34;100492.81;;;22.35;51.29
28428;BME280;15662;49.128;8.520;2022-07-01T03:06:02;100471.53;;;22.31;51.15
28428;BME280;15662;49.128;8.520;2022-07-01T03:08:30;100481.59;;;22.29;51.15
28428;BME280;15662;49.128;8.520;2022-07-01T03:10:58;100492.88;;;22.23;51.21
28428;BME280;15662;49.128;8.520;2022-07-01T03:13:26;100500.09;;;22.22;51.24
28428;BME280;15662;49.128;8.520;2022-07-01T03:15:54;100515.31;;;22.23;51.29
28428;BME280;15662;49.128;8.520;2022-07-01T03:18:22;100520.72;;;22.23;51.28
28428;BME280;15662;49.128;8.520;2022-07-01T03:20:50;100500.53;;;22.16;51.44
28428;BME280;15662;49.128;8.520;2022-07-01T03:23:19;100492.34;;;22.18;51.50
28428;BME280;15662;49.128;8.520;2022-07-01T03:25:47;100481.09;;;22.11;51.52
28428;BME280;15662;49.128;8.520;2022-07-01T03:28:15;100500.00;;;22.11;51.70
28428;BME280;15662;49.128;8.520;2022-07-01T03:30:44;100506.78;;;22.04;51.56
28428;BME280;15662;49.128;8.520;2022-07-01T03:33:12;100500.41;;;22.05;51.74
28428;BME280;15662;49.128;8.520;2022-07-01T03:35:40;100499.00;;;21.99;51.55
28428;BME280;15662;49.128;8.520;2022-07-01T03:38:13;100510.66;;;22.00;51.79
28428;BME280;15662;49.128;8.520;2022-07-01T03:40:40;100526.22;;;21.96;51.75
28428;BME280;15662;49.128;8.520;2022-07-01T03:43:08;100535.41;;;21.94;51.87
28428;BME280;15662;49.128;8.520;2022-07-01T03:45:36;100519.94;;;21.96;51.93
28428;BME280;15662;49.128;8.520;2022-07-01T03:48:24;100531.72;;;21.95;52.03
28428;BME280;15662;49.128;8.520;2022-07-01T03:51:13;100526.22;;;21.96;51.91
28428;BME280;15662;49.128;8.520;2022-07-01T03:53:41;100534.09;;;21.99;52.14
28428;BME280;15662;49.128;8.520;2022-07-01T03:56:28;100523.63;;;21.95;52.29
28428;BME280;15662;49.128;8.520;2022-07-01T03:58:56;100510.88;;;21.97;52.00
28428;BME280;15662;49.128;8.520;2022-07-01T04:01:24;100507.84;;;22.01;51.99
28428;BME280;15662;49.128;8.520;2022-07-01T04:03:52;100507.97;;;22.00;52.04
28428;BME280;15662;49.128;8.520;2022-07-01T04:06:20;100532.06;;;22.03;52.08
28428;BME280;15662;49.128;8.520;2022-07-01T04:08:49;100542.94;;;22.01;52.13
28428;BME280;15662;49.128;8.520;2022-07-01T04:11:17;100556.56;;;22.00;52.09
28428;BME280;15662;49.128;8.520;2022-07-01T04:13:46;100571.69;;;22.02;52.14
28428;BME280;15662;49.128;8.520;2022-07-01T04:16:19;100574.47;;;22.01;52.07
28428;BME280;15662;49.128;8.520;2022-07-01T04:18:47;100579.84;;;22.01;52.10
28428;BME280;15662;49.128;8.520;2022-07-01T04:21:15;100592.28;;;22.03;52.21
28428;BME280;15662;49.128;8.520;2022-07-01T04:24:05;100584.50;;;21.99;52.38
28428;BME280;15662;49.128;8.520;2022-07-01T04:26:34;100580.97;;;21.98;52.22
28428;BME280;15662;49.128;8.520;2022-07-01T04:29:06;100574.47;;;22.01;52.49
28428;BME280;15662;49.128;8.520;2022-07-01T04:31:38;100585.91;;;22.04;52.06
28428;BME280;15662;49.128;8.520;2022-07-01T04:34:07;100584.19;;;22.03;52.30
28428;BME280;15662;49.128;8.520;2022-07-01T04:36:36;100594.69;;;22.08;52.21
28428;BME280;15662;49.128;8.520;2022-07-01T04:39:05;100581.50;;;22.03;52.27
28428;BME280;15662;49.128;8.520;2022-07-01T04:41:33;100588.50;;;22.06;52.27
28428;BME280;15662;49.128;8.520;2022-07-01T04:44:20;100594.75;;;22.06;52.46
28428;BME280;15662;49.128;8.520;2022-07-01T04:46:47;100578.56;;;22.06;52.42
28428;BME280;15662;49.128;8.520;2022-07-01T04:49:15;100610.66;;;22.11;52.56
28428;BME280;15662;49.128;8.520;2022-07-01T04:51:43;100589.28;;;22.08;52.68
28428;BME280;15662;49.128;8.520;2022-07-01T04:54:11;100620.09;;;22.18;52.70
28428;BME280;15662;49.128;8.520;2022-07-01T04:56:39;100619.97;;;22.20;52.64
28428;BME280;15662;49.128;8.520;2022-07-01T04:59:15;100613.50;;;22.22;52.66
28428;BME280;15662;49.128;8.520;2022-07-01T05:01:44;100613.69;;;22.19;52.58
28428;BME280;15662;49.128;8.520;2022-07-01T05:04:12;100625.03;;;22.24;52.58
28428;BME280;15662;49.128;8.520;2022-07-01T05:06:40;100637.69;;;22.24;52.41
28428;BME280;15662;49.128;8.520;2022-07-01T05:09:08;100631.53;;;22.22;52.46
28428;BME280;15662;49.128;8.520;2022-07-01T05:11:37;100623.22;;;22.25;52.36
28428;BME280;15662;49.128;8.520;2022-07-01T05:14:07;100617.81;;;22.25;52.31
28428;BME280;15662;49.128;8.520;2022-07-01T05:16:36;100599.22;;;22.20;52.38
28428;BME280;15662;49.128;8.520;2022-07-01T05:19:04;100610.69;;;22.24;52.35
28428;BME280;15662;49.128;8.520;2022-07-01T05:21:51;100618.03;;;22.22;52.33
28428;BME280;15662;49.128;8.520;2022-07-01T05:24:31;100620.50;;;22.25;52.20
28428;BME280;15662;49.128;8.520;2022-07-01T05:27:01;100609.94;;;22.22;52.32
28428;BME280;15662;49.128;8.520;2022-07-01T05:29:30;100630.97;;;22.29;52.18
28428;BME280;15662;49.128;8.520;2022-07-01T05:31:57;100615.09;;;22.25;52.43
28428;BME280;15662;49.128;8.520;2022-07-01T05:34:25;100614.25;;;22.24;52.44
28428;BME280;15662;49.128;8.520;2022-07-01T05:36:53;100599.88;;;22.24;52.54
28428;BME280;15662;49.128;8.520;2022-07-01T05:39:21;100609.38;;;22.29;52.67
28428;BME280;15662;49.128;8.520;2022-07-01T05:41:49;100611.22;;;22.29;52.43
28428;BME280;15662;49.128;8.520;2022-07-01T05:44:17;100613.19;;;22.27;52.31
28428;BME280;15662;49.128;8.520;2022-07-01T05:46:45;100613.25;;;22.25;52.49
28428;BME280;15662;49.128;8.520;2022-07-01T05:49:13;100630.97;;;22.29;52.56
28428;BME280;15662;49.128;8.520;2022-07-01T05:51:45;100619.09;;;22.19;52.46
28428;BME280;15662;49.128;8.520;2022-07-01T05:54:14;100630.25;;;22.27;52.70
28428;BME280;15662;49.128;8.520;2022-07-01T05:56:41;100630.25;;;22.27;52.67
28428;BME280;15662;49.128;8.520;2022-07-01T05:59:10;100643.50;;;22.30;52.71
28428;BME280;15662;49.128;8.520;2022-07-01T06:01:39;100646.22;;;22.30;52.90
28428;BME280;15662;49.128;8.520;2022-07-01T06:04:07;100620.31;;;22.28;52.85
28428;BME280;15662;49.128;8.520;2022-07-01T06:06:35;100635.19;;;22.33;53.01
28428;BME280;15662;49.128;8.520;2022-07-01T06:09:03;100630.13;;;22.29;52.95
28428;BME280;15662;49.128;8.520;2022-07-01T06:11:31;100649.78;;;22.31;53.00
28428;BME280;15662;49.128;8.520;2022-07-01T06:13:59;100655.81;;;22.34;52.97
28428;BME280;15662;49.128;8.520;2022-07-01T06:16:27;100649.69;;;22.32;53.06
28428;BME280;15662;49.128;8.520;2022-07-01T06:18:58;100656.03;;;22.31;52.88
28428;BME280;15662;49.128;8.520;2022-07-01T06:21:27;100666.84;;;22.31;53.05
28428;BME280;15662;49.128;8.520;2022-07-01T06:23:55;100675.91;;;22.30;52.92
28428;BME280;15662;49.128;8.520;2022-07-01T06:26:22;100679.59;;;22.29;53.05
28428;BME280;15662;49.128;8.520;2022-07-01T06:28:51;100671.94;;;22.23;53.17
28428;BME280;15662;49.128;8.520;2022-07-01T06:31:18;100683.16;;;22.30;53.34
28428;BME280;15662;49.128;8.520;2022-07-01T06:33:47;100684.88;;;22.31;53.31
28428;BME280;15662;49.128;8.520;2022-07-01T06:36:15;100663.94;;;22.34;53.50
28428;BME280;15662;49.128;8.520;2022-07-01T06:38:44;100673.34;;;22.42;53.61
28428;BME280;15662;49.128;8.520;2022-07-01T06:41:12;100651.81;;;22.40;53.69
28428;BME280;15662;49.128;8.520;2022-07-01T06:43:59;100668.69;;;22.56;53.57
28428;BME280;15662;49.128;8.520;2022-07-01T06:46:28;100668.25;;;22.62;53.16
28428;BME280;15662;49.128;8.520;2022-07-01T06:48:58;100677.97;;;22.65;53.11
28428;BME280;15662;49.128;8.520;2022-07-01T06:51:26;100677.44;;;22.73;53.10
28428;BME280;15662;49.128;8.520;2022-07-01T06:53:55;100676.44;;;22.74;53.16
28428;BME280;15662;49.128;8.520;2022-07-01T06:56:22;100677.19;;;22.76;53.17
28428;BME280;15662;49.128;8.520;2022-07-01T06:58:50;100679.69;;;22.79;52.93
28428;BME280;15662;49.128;8.520;2022-07-01T07:01:18;100682.94;;;22.71;52.58
28428;BME280;15662;49.128;8.520;2022-07-01T07:03:46;100690.53;;;22.66;52.66
28428;BME280;15662;49.128;8.520;2022-07-01T07:06:14;100689.88;;;22.62;52.83
28428;BME280;15662;49.128;8.520;2022-07-01T07:08:43;100689.75;;;22.64;52.91
28428;BME280;15662;49.128;8.520;2022-07-01T07:11:11;100689.88;;;22.62;52.76
28428;BME280;15662;49.128;8.520;2022-07-01T07:13:39;100692.44;;;22.64;52.72
28428;BME280;15662;49.128;8.520;2022-07-01T07:16:07;100671.94;;;22.61;52.89
28428;BME280;15662;49.128;8.520;2022-07-01T07:18:35;100684.13;;;22.67;53.05
28428;BME280;15662;49.128;8.520;2022-07-01T07:21:03;100685.75;;;22.70;52.98
28428;BME280;15662;49.128;8.520;2022-07-01T07:23:31;100688.25;;;22.73;53.21
28428;BME280;15662;49.128;8.520;2022-07-01T07:25:59;100691.16;;;22.70;53.21
28428;BME280;15662;49.128;8.520;2022-07-01T07:28:27;100697.84;;;22.77;53.15
28428;BME280;15662;49.128;8.520;2022-07-01T07:30:55;100707.38;;;22.82;53.17
28428;BME280;15662;49.128;8.520;2022-07-01T07:33:23;100698.06;;;22.86;52.99
28428;BME280;15662;49.128;8.520;2022-07-01T07:35:52;100688.19;;;22.85;52.98
28428;BME280;15662;49.128;8.520;2022-07-01T07:38:20;100684.56;;;22.86;52.78
28428;BME280;15662;49.128;8.520;2022-07-01T07:40:48;100681.84;;;22.86;52.55
28428;BME280;15662;49.128;8.520;2022-07-01T07:43:16;100687.34;;;22.85;52.60
28428;BME280;15662;49.128;8.520;2022-07-01T07:45:44;100691.59;;;22.89;52.77
28428;BME280;15662;49.128;8.520;2022-07-01T07:48:12;100686.84;;;22.92;52.67
28428;BME280;15662;49.128;8.520;2022-07-01T07:50:40;100678.16;;;23.00;52.91
28428;BME280;15662;49.128;8.520;2022-07-01T07:53:08;100681.69;;;23.13;53.02
28428;BME280;15662;49.128;8.520;2022-07-01T07:55:38;100677.06;;;23.15;52.60
28428;BME280;15662;49.128;8.520;2022-07-01T07:58:06;100674.22;;;23.17;52.37
28428;BME280;15662;49.128;8.520;2022-07-01T08:00:34;100677.06;;;23.15;52.60
28428;BME280;15662;49.128;8.520;2022-07-01T08:03:07;100692.41;;;23.15;52.36
28428;BME280;15662;49.128;8.520;2022-07-01T08:05:36;100708.19;;;23.21;52.50
28428;BME280;15662;49.128;8.520;2022-07-01T08:08:05;100705.69;;;23.18;52.31
28428;BME280;15662;49.128;8.520;2022-07-01T08:10:33;100725.03;;;23.25;52.27
28428;BME280;15662;49.128;8.520;2022-07-01T08:13:01;100734.25;;;23.22;52.25
28428;BME280;15662;49.128;8.520;2022-07-01T08:15:33;100730.91;;;23.18;52.12
28428;BME280;15662;49.128;8.520;2022-07-01T08:18:01;100721.41;;;23.13;51.76
28428;BME280;15662;49.128;8.520;2022-07-01T08:20:31;100724.56;;;23.07;51.88
28428;BME280;15662;49.128;8.520;2022-07-01T08:23:00;100736.88;;;22.98;51.85
28428;BME280;15662;49.128;8.520;2022-07-01T08:25:28;100738.19;;;22.92;52.00
28428;BME280;15662;49.128;8.520;2022-07-01T08:28:03;100729.31;;;22.90;51.99
28428;BME280;15662;49.128;8.520;2022-07-01T08:30:32;100746.81;;;22.85;52.18
28428;BME280;15662;49.128;8.520;2022-07-01T08:33:00;100756.88;;;22.83;52.40
28428;BME280;15662;49.128;8.520;2022-07-01T08:35:29;100772.09;;;22.84;52.62
28428;BME280;15662;49.128;8.520;2022-07-01T08:37:58;100765.97;;;22.82;52.49
28428;BME280;15662;49.128;8.520;2022-07-01T08:40:31;100768.44;;;22.85;52.50
28428;BME280;15662;49.128;8.520;2022-07-01T08:43:02;100769.66;;;22.81;52.63
28428;BME280;15662;49.128;8.520;2022-07-01T08:45:34;100784.00;;;22.81;52.63
28428;BME280;15662;49.128;8.520;2022-07-01T08:48:05;100775.25;;;22.78;52.71
28428;BME280;15662;49.128;8.520;2022-07-01T08:50:40;100777.50;;;22.84;52.68
28428;BME280;15662;49.128;8.520;2022-07-01T08:53:11;100762.53;;;22.92;52.88
28428;BME280;15662;49.128;8.520;2022-07-01T08:55:40;100765.66;;;22.99;53.09
28428;BME280;15662;49.128;8.520;2022-07-01T08:58:28;100766.09;;;23.06;53.17
28428;BME280;15662;49.128;8.520;2022-07-01T09:01:21;100781.09;;;23.23;52.86
28428;BME280;15662;49.128;8.520;2022-07-01T09:03:54;100779.66;;;23.30;52.79
28428;BME280;15662;49.128;8.520;2022-07-01T09:06:28;100784.84;;;23.46;52.93
28428;BME280;15662;49.128;8.520;2022-07-01T09:09:14;100787.41;;;23.60;52.73
28428;BME280;15662;49.128;8.520;2022-07-01T09:11:54;100784.91;;;23.70;52.73
28428;BME280;15662;49.128;8.520;2022-07-01T09:14:29;100778.22;;;23.86;52.65
28428;BME280;15662;49.128;8.520;2022-07-01T09:17:00;100773.16;;;24.06;52.91
28428;BME280;15662;49.128;8.520;2022-07-01T09:19:32;100780.84;;;24.23;52.45
28428;BME280;15662;49.128;8.520;2022-07-01T09:22:02;100790.13;;;24.32;51.94
28428;BME280;15662;49.128;8.520;2022-07-01T09:24:42;100769.00;;;24.37;51.36
28428;BME280;15662;49.128;8.520;2022-07-01T09:27:14;100787.47;;;24.43;51.20
28428;BME280;15662;49.128;8.520;2022-07-01T09:29:51;100789.50;;;24.28;51.63
28428;BME280;15662;49.128;8.520;2022-07-01T09:32:21;100794.91;;;24.52;51.36
28428;BME280;15662;49.128;8.520;2022-07-01T09:34:53;100796.19;;;24.70;51.04
28428;BME280;15662;49.128;8.520;2022-07-01T09:37:25;100795.84;;;24.86;50.67
28428;BME280;15662;49.128;8.520;2022-07-01T09:39:56;100801.03;;;25.01;50.48
28428;BME280;15662;49.128;8.520;2022-07-01T09:42:26;100796.47;;;25.01;50.00
28428;BME280;15662;49.128;8.520;2022-07-01T09:45:06;100802.94;;;25.11;49.87
28428;BME280;15662;49.128;8.520;2022-07-01T09:47:39;100798.38;;;25.12;49.68
28428;BME280;15662;49.128;8.520;2022-07-01T09:50:27;100803.69;;;25.13;49.51
28428;BME280;15662;49.128;8.520;2022-07-01T09:53:16;100784.81;;;25.12;49.21
28428;BME280;15662;49.128;8.520;2022-07-01T09:55:44;100794.44;;;25.16;49.00
28428;BME280;15662;49.128;8.520;2022-07-01T09:58:14;100803.06;;;25.21;48.59
28428;BME280;15662;49.128;8.520;2022-07-01T10:00:43;100799.75;;;25.29;48.43
28428;BME280;15662;49.128;8.520;2022-07-01T10:03:13;100794.19;;;25.30;48.03
28428;BME280;15662;49.128;8.520;2022-07-01T10:05:54;100794.66;;;25.35;47.96
28428;BME280;15662;49.128;8.520;2022-07-01T10:11:47;100800.69;;;25.61;47.81
28428;BME280;15662;49.128;8.520;2022-07-01T10:14:21;100805.38;;;25.59;47.57
28428;BME280;15662;49.128;8.520;2022-07-01T10:16:50;100799.34;;;25.67;47.10
28428;BME280;15662;49.128;8.520;2022-07-01T10:21:54;100803.88;;;25.66;46.85
28428;BME280;15662;49.128;8.520;2022-07-01T10:24:26;100802.91;;;25.67;47.02
28428;BME280;15662;49.128;8.520;2022-07-01T10:27:01;100819.22;;;25.79;46.54
28428;BME280;15662;49.128;8.520;2022-07-01T10:29:47;100803.06;;;25.77;46.48
28428;BME280;15662;49.128;8.520;2022-07-01T10:32:33;100808.78;;;25.95;46.11
28428;BME280;15662;49.128;8.520;2022-07-01T10:35:21;100811.50;;;25.95;45.84
28428;BME280;15662;49.128;8.520;2022-07-01T10:37:59;100809.41;;;25.98;45.04
28428;BME280;15662;49.128;8.520;2022-07-01T10:40:44;100807.69;;;25.97;44.80
28428;BME280;15662;49.128;8.520;2022-07-01T10:43:31;100814.97;;;25.97;44.78
28428;BME280;15662;49.128;8.520;2022-07-01T10:46:00;100803.13;;;25.98;44.82
28428;BME280;15662;49.128;8.520;2022-07-01T10:48:32;100808.41;;;26.11;44.91
28428;BME280;15662;49.128;8.520;2022-07-01T10:51:01;100801.06;;;26.22;44.79
28428;BME280;15662;49.128;8.520;2022-07-01T10:53:46;100796.78;;;26.41;44.49
28428;BME280;15662;49.128;8.520;2022-07-01T10:56:39;100811.44;;;26.49;44.42
28428;BME280;15662;49.128;8.520;2022-07-01T10:59:13;100810.34;;;26.52;44.14
28428;BME280;15662;49.128;8.520;2022-07-01T11:01:44;100809.41;;;26.63;43.35
28428;BME280;15662;49.128;8.520;2022-07-01T11:04:12;100805.28;;;26.68;43.04
28428;BME280;15662;49.128;8.520;2022-07-01T11:06:41;100809.09;;;26.77;42.95
28428;BME280;15662;49.128;8.520;2022-07-01T11:09:12;100811.88;;;26.87;42.96
28428;BME280;15662;49.128;8.520;2022-07-01T11:11:41;100799.72;;;26.91;43.01
28428;BME280;15662;49.128;8.520;2022-07-01T11:14:09;100799.59;;;26.92;42.68
28428;BME280;15662;49.128;8.520;2022-07-01T11:16:38;100795.69;;;26.85;41.78
28428;BME280;15662;49.128;8.520;2022-07-01T11:19:07;100786.88;;;26.72;41.59
28428;BME280;15662;49.128;8.520;2022-07-01T11:21:36;100787.66;;;26.63;41.39
28428;BME280;15662;49.128;8.520;2022-07-01T11:24:08;100794.34;;;26.59;41.22
28428;BME280;15662;49.128;8.520;2022-07-01T11:26:37;100788.00;;;26.48;41.40
28428;BME280;15662;49.128;8.520;2022-07-01T11:29:05;100797.38;;;26.44;41.44
28428;BME280;15662;49.128;8.520;2022-07-01T11:31:37;100795.78;;;26.42;41.34
28428;BME280;15662;49.128;8.520;2022-07-01T11:34:06;100785.81;;;26.42;41.32
28428;BME280;15662;49.128;8.520;2022-07-01T11:36:34;100783.94;;;26.43;40.97
28428;BME280;15662;49.128;8.520;2022-07-01T11:39:21;100781.59;;;26.38;40.77
28428;BME280;15662;49.128;8.520;2022-07-01T11:41:57;100775.91;;;26.41;40.50
28428;BME280;15662;49.128;8.520;2022-07-01T11:44:41;100778.72;;;26.51;40.45
28428;BME280;15662;49.128;8.520;2022-07-01T11:47:24;100757.84;;;26.52;40.92
28428;BME280;15662;49.128;8.520;2022-07-01T11:49:52;100774.31;;;26.60;40.44
28428;BME280;15662;49.128;8.520;2022-07-01T11:52:22;100773.28;;;26.72;40.36
28428;BME280;15662;49.128;8.520;2022-07-01T11:54:53;100770.00;;;26.78;40.03
28428;BME280;15662;49.128;8.520;2022-07-01T11:57:41;100772.31;;;26.83;39.71
28428;BME280;15662;49.128;8.520;2022-07-01T12:00:12;100773.97;;;26.95;39.14
28428;BME280;15662;49.128;8.520;2022-07-01T12:02:40;100768.53;;;26.95;39.51
28428;BME280;15662;49.128;8.520;2022-07-01T12:05:08;100765.53;;;26.98;38.84
28428;BME280;15662;49.128;8.520;2022-07-01T12:07:36;100764.53;;;26.99;38.43
28428;BME280;15662;49.128;8.520;2022-07-01T12:10:08;100765.97;;;27.03;38.28
28428;BME280;15662;49.128;8.520;2022-07-01T12:12:49;100767.00;;;27.02;38.14
28428;BME280;15662;49.128;8.520;2022-07-01T12:15:17;100763.63;;;27.10;37.72
28428;BME280;15662;49.128;8.520;2022-07-01T12:17:48;100771.09;;;27.17;37.67
28428;BME280;15662;49.128;8.520;2022-07-01T12:20:31;100762.13;;;27.26;37.15
28428;BME280;15662;49.128;8.520;2022-07-01T12:23:15;100772.88;;;27.38;37.32
28428;BME280;15662;49.128;8.520;2022-07-01T12:25:51;100780.53;;;27.44;37.31
28428;BME280;15662;49.128;8.520;2022-07-01T12:28:32;100767.47;;;27.47;37.48
28428;BME280;15662;49.128;8.520;2022-07-01T12:31:06;100768.66;;;27.55;37.19
28428;BME280;15662;49.128;8.520;2022-07-01T12:33:39;100755.63;;;27.68;37.02
28428;BME280;15662;49.128;8.520;2022-07-01T12:36:07;100765.28;;;27.82;36.33
28428;BME280;15662;49.128;8.520;2022-07-01T12:38:35;100757.28;;;27.90;35.93
28428;BME280;15662;49.128;8.520;2022-07-01T12:41:34;100751.84;;;27.90;36.09
28428;BME280;15662;49.128;8.520;2022-07-01T12:44:23;100750.25;;;27.87;35.64
28428;BME280;15662;49.128;8.520;2022-07-01T12:46:52;100746.22;;;27.82;35.89
28428;BME280;15662;49.128;8.520;2022-07-01T12:49:22;100735.47;;;27.80;35.62
28428;BME280;15662;49.128;8.520;2022-07-01T12:51:52;100740.19;;;27.78;36.44
28428;BME280;15662;49.128;8.520;2022-07-01T12:54:38;100744.53;;;27.90;36.15
28428;BME280;15662;49.128;8.520;2022-07-01T12:57:06;100740.94;;;27.90;36.51
28428;BME280;15662;49.128;8.520;2022-07-01T12:59:34;100748.53;;;28.06;36.35
28428;BME280;15662;49.128;8.520;2022-07-01T13:02:03;100736.50;;;28.18;36.67
28428;BME280;15662;49.128;8.520;2022-07-01T13:04:31;100738.75;;;28.32;36.03
28428;BME280;15662;49.128;8.520;2022-07-01T13:07:00;100744.66;;;28.47;35.65
28428;BME280;15662;49.128;8.520;2022-07-01T13:09:28;100743.22;;;28.62;35.30
28428;BME280;15662;49.128;8.520;2022-07-01T13:11:56;100744.47;;;28.77;34.98
28428;BME280;15662;49.128;8.520;2022-07-01T13:14:24;100739.69;;;28.89;34.72
28428;BME280;15662;49.128;8.520;2022-07-01T13:16:52;100739.25;;;28.94;34.49